Time;durP1;ratioP1;P1;durP2;ratioP2;P2;SDS_P1;SDS_P2;PMS_P1;PMS_P2;Temp;Humidity;BMP_temperature;BMP_pressure;BME280_temperature;BME280_humidity;BME280_pressure;Samples;Min_cycle;Max_cycle;Signal;HPM_P1;HPM_P2
2022/09/18 00:01:00;;;;;;;3.60;1.40;;;;;;;10.99;100.00;101578.59;5026968;28;20140;-63
2022/09/18 00:03:27;;;;;;;3.58;1.00;;;;;;;10.99;100.00;101574.25;5027299;28;20040;-63
2022/09/18 00:05:52;;;;;;;4.93;1.83;;;;;;;10.98;100.00;101577.69;5027554;28;20025;-63
2022/09/18 00:08:17;;;;;;;4.65;1.25;;;;;;;10.98;100.00;101582.88;5026818;28;20102;-63
2022/09/18 00:10:45;;;;;;;3.20;0.80;;;;;;;11.00;100.00;101577.75;5027111;28;20032;-63
2022/09/18 00:13:12;;;;;;;5.43;1.23;;;;;;;10.95;100.00;101582.75;5027471;28;20112;-63
2022/09/18 00:15:37;;;;;;;3.47;1.17;;;;;;;10.95;100.00;101572.38;5027229;28;20156;-63
2022/09/18 00:18:04;;;;;;;7.13;1.40;;;;;;;10.92;100.00;101570.53;5026681;28;20543;-63
2022/09/18 00:20:31;;;;;;;3.45;1.58;;;;;;;10.88;100.00;101566.03;5027126;28;20108;-63
2022/09/18 00:22:57;;;;;;;4.40;1.58;;;;;;;10.87;100.00;101573.75;5026891;28;20033;-63
2022/09/18 00:25:22;;;;;;;3.85;1.23;;;;;;;10.84;100.00;101568.44;5027207;28;20509;-63
2022/09/18 00:27:48;;;;;;;7.13;1.75;;;;;;;10.79;100.00;101574.31;5027082;28;20040;-63
2022/09/18 00:30:14;;;;;;;5.20;2.42;;;;;;;10.80;100.00;101559.66;5027242;28;20065;-63
2022/09/18 00:32:39;;;;;;;3.35;1.70;;;;;;;10.79;100.00;101560.47;5026803;28;20041;-63
2022/09/18 00:35:04;;;;;;;4.72;1.80;;;;;;;10.79;100.00;101558.75;5026584;28;20083;-63
2022/09/18 00:37:30;;;;;;;2.97;1.63;;;;;;;10.78;100.00;101554.41;5027253;28;20516;-63
2022/09/18 00:39:55;;;;;;;3.35;1.95;;;;;;;10.76;100.00;101555.13;5027493;28;20458;-63
2022/09/18 00:42:20;;;;;;;8.32;2.30;;;;;;;10.78;100.00;101561.28;5026793;28;20045;-63
2022/09/18 00:44:48;;;;;;;5.82;1.73;;;;;;;10.79;100.00;101570.84;5029282;28;20507;-63
2022/09/18 00:47:44;;;;;;;4.65;1.30;;;;;;;10.83;100.00;101577.06;5030916;28;20025;-64
2022/09/18 00:50:15;;;;;;;2.95;1.60;;;;;;;10.85;100.00;101572.81;5029781;28;20037;-63
2022/09/18 00:52:43;;;;;;;2.83;1.58;;;;;;;10.84;100.00;101574.53;5030146;28;20059;-64
2022/09/18 00:55:10;;;;;;;5.13;1.88;;;;;;;10.85;100.00;101552.09;5030712;28;20021;-64
2022/09/18 00:57:40;;;;;;;2.63;1.50;;;;;;;10.85;100.00;101565.03;5030883;28;20040;-63
2022/09/18 01:00:10;;;;;;;7.30;2.90;;;;;;;10.84;100.00;101565.84;5030726;28;20366;-64
2022/09/18 01:02:35;;;;;;;6.60;1.70;;;;;;;10.83;100.00;101564.09;5030893;28;20028;-64
2022/09/18 01:05:01;;;;;;;5.05;1.83;;;;;;;10.86;100.00;101569.41;5030518;28;20044;-64
2022/09/18 01:08:06;;;;;;;5.35;1.83;;;;;;;10.87;100.00;101574.66;5030368;28;20025;-63
2022/09/18 01:10:49;;;;;;;4.20;1.58;;;;;;;10.89;100.00;101572.13;5028090;28;20122;-63
2022/09/18 01:13:14;;;;;;;7.80;1.95;;;;;;;10.85;100.00;101565.91;5022141;28;20124;-63
2022/09/18 01:15:56;;;;;;;6.20;1.88;;;;;;;10.85;100.00;101575.41;5030443;28;20168;-64
2022/09/18 01:18:35;;;;;;;3.78;1.98;;;;;;;10.85;100.00;101575.41;5030657;28;20481;-63
2022/09/18 01:21:06;;;;;;;4.43;1.77;;;;;;;10.85;100.00;101575.41;5030331;28;20087;-63
2022/09/18 01:24:02;;;;;;;5.93;2.53;;;;;;;10.84;100.00;101579.72;5029923;28;20048;-63
2022/09/18 01:27:02;;;;;;;3.63;1.60;;;;;;;10.83;100.00;101580.50;5030089;28;20075;-63
2022/09/18 01:29:57;;;;;;;7.43;2.03;;;;;;;10.84;100.00;101579.72;5026758;28;20095;-63
2022/09/18 01:32:26;;;;;;;3.45;1.90;;;;;;;10.78;100.00;101569.97;5030661;28;20021;-63
2022/09/18 01:35:12;;;;;;;4.30;1.77;;;;;;;10.75;100.00;101567.25;5029763;28;20171;-63
2022/09/18 01:38:30;;;;;;;6.00;1.80;;;;;;;10.74;100.00;101568.03;5030614;28;20029;-63
2022/09/18 01:41:02;;;;;;;3.65;1.52;;;;;;;10.75;100.00;101567.25;4967958;28;20054;-63
2022/09/18 01:43:29;;;;;;;6.97;1.80;;;;;;;10.76;100.00;101561.22;5019208;28;20038;-63
2022/09/18 01:45:58;;;;;;;5.45;1.85;;;;;;;10.75;100.00;101556.88;5016100;28;20482;-64
2022/09/18 01:48:29;;;;;;;6.00;2.00;;;;;;;10.73;100.00;101558.50;5030324;28;20026;-63
2022/09/18 01:51:20;;;;;;;4.05;1.77;;;;;;;10.72;100.00;101556.72;5029589;28;20017;-63
2022/09/18 01:53:57;;;;;;;5.90;2.17;;;;;;;10.70;100.00;101553.19;5029725;28;20013;-64
2022/09/18 01:56:25;;;;;;;5.13;1.90;;;;;;;10.68;100.00;101547.94;5029453;28;20469;-63
2022/09/18 01:58:55;;;;;;;4.85;1.85;;;;;;;10.67;100.00;101545.25;5026006;28;20033;-63
2022/09/18 02:01:23;;;;;;;6.15;1.77;;;;;;;10.66;100.00;101549.59;5011720;28;20044;-63
2022/09/18 02:03:56;;;;;;;6.45;2.13;;;;;;;10.57;100.00;101544.91;5029521;28;20021;-63
2022/09/18 02:06:25;;;;;;;3.88;2.00;;;;;;;10.52;100.00;101532.56;5029543;28;20025;-63
2022/09/18 02:08:53;;;;;;;5.05;2.38;;;;;;;10.42;100.00;101534.69;5029039;28;20037;-63
2022/09/18 02:11:20;;;;;;;8.05;3.00;;;;;;;10.43;100.00;101551.13;5029404;28;20029;-63
2022/09/18 02:13:48;;;;;;;4.20;2.42;;;;;;;10.43;100.00;101541.63;5029414;28;20553;-63
2022/09/18 02:16:37;;;;;;;5.50;2.88;;;;;;;10.44;100.00;101542.53;5029669;28;20504;-63
2022/09/18 02:19:15;;;;;;;5.82;2.60;;;;;;;10.43;100.00;101551.13;5029533;28;20512;-63
2022/09/18 02:21:44;;;;;;;5.95;3.10;;;;;;;10.44;100.00;101547.72;5029372;28;20668;-63
2022/09/18 02:24:14;;;;;;;4.63;2.78;;;;;;;10.43;100.00;101536.47;5029126;28;20561;-63
2022/09/18 02:26:41;;;;;;;5.82;2.78;;;;;;;10.46;100.00;101535.72;5028702;28;20041;-63
2022/09/18 02:29:11;;;;;;;8.95;2.97;;;;;;;10.47;100.00;101532.28;5029151;28;20029;-63
2022/09/18 02:31:38;;;;;;;7.15;2.70;;;;;;;10.49;100.00;101520.34;5029485;28;20071;-63
2022/09/18 02:34:07;;;;;;;6.03;2.67;;;;;;;10.48;100.00;101534.13;5028996;28;20030;-63
2022/09/18 02:37:19;;;;;;;3.35;2.15;;;;;;;10.52;100.00;101525.63;5028849;28;20045;-63
2022/09/18 02:40:07;;;;;;;3.00;2.20;;;;;;;10.54;100.00;101524.00;4995009;28;20041;-63
2022/09/18 02:43:09;;;;;;;6.63;2.38;;;;;;;10.57;100.00;101520.69;5028698;28;20049;-63
2022/09/18 02:46:08;;;;;;;6.82;2.90;;;;;;;10.56;100.00;101517.19;5028166;28;20030;-63
2022/09/18 02:48:51;;;;;;;7.65;2.33;;;;;;;10.57;100.00;101526.75;5014405;28;20078;-63
2022/09/18 02:51:25;;;;;;;7.85;2.40;;;;;;;10.57;100.00;101518.97;5028579;28;20037;-63
2022/09/18 02:54:28;;;;;;;4.28;1.60;;;;;;;10.61;100.00;101526.88;5028074;28;20080;-63
2022/09/18 02:57:14;;;;;;;6.30;2.13;;;;;;;10.61;100.00;101519.09;5028304;28;20151;-62
2022/09/18 02:59:51;;;;;;;5.97;1.88;;;;;;;10.65;100.00;101523.59;5028775;28;20061;-63
2022/09/18 03:02:19;;;;;;;6.57;2.15;;;;;;;10.67;100.00;101516.75;5028333;28;20037;-63
2022/09/18 03:04:44;;;;;;;5.25;1.70;;;;;;;10.68;100.00;101515.94;5028825;28;20040;-63
2022/09/18 03:07:13;;;;;;;6.47;2.10;;;;;;;10.70;100.00;101516.91;5027756;28;20037;-63
2022/09/18 03:09:38;;;;;;;6.72;1.80;;;;;;;10.69;100.00;101515.13;5028063;28;20032;-63
2022/09/18 03:12:04;;;;;;;6.53;2.50;;;;;;;10.69;100.00;101513.41;5028672;28;20560;-63
2022/09/18 03:14:29;;;;;;;5.22;2.40;;;;;;;10.72;100.00;101512.66;5028182;28;20083;-63
2022/09/18 03:16:54;;;;;;;4.55;1.90;;;;;;;10.73;100.00;101509.25;5028012;28;20028;-63
2022/09/18 03:19:20;;;;;;;6.72;1.90;;;;;;;10.73;100.00;101508.34;5027995;28;20021;-63
2022/09/18 03:21:45;;;;;;;4.90;2.10;;;;;;;10.73;100.00;101504.06;5028201;28;20036;-64
2022/09/18 03:24:10;;;;;;;4.20;1.95;;;;;;;10.75;100.00;101506.72;5027523;28;20032;-63
2022/09/18 03:26:36;;;;;;;4.25;1.50;;;;;;;10.75;100.00;101502.44;5028010;28;20108;-63
2022/09/18 03:29:06;;;;;;;4.95;1.65;;;;;;;10.74;100.00;101503.22;5027877;28;20496;-63
2022/09/18 03:31:31;;;;;;;7.20;1.90;;;;;;;10.74;100.00;101499.78;5027724;28;20021;-64
2022/09/18 03:33:56;;;;;;;3.03;1.08;;;;;;;10.75;100.00;101502.44;5027894;28;20025;-63
2022/09/18 03:36:22;;;;;;;7.28;1.70;;;;;;;10.74;100.00;101498.03;5030919;28;20021;-63
2022/09/18 03:38:47;;;;;;;4.38;1.33;;;;;;;10.76;100.00;101499.00;5027161;28;20201;-63
2022/09/18 03:41:12;;;;;;;6.13;1.90;;;;;;;10.77;100.00;101500.78;5027648;28;21015;-63
2022/09/18 03:43:38;;;;;;;4.95;1.20;;;;;;;10.78;100.00;101499.06;5027700;28;20029;-63
2022/09/18 03:46:03;;;;;;;3.72;1.33;;;;;;;10.77;100.00;101494.72;5027868;28;20075;-63
2022/09/18 03:48:29;;;;;;;6.05;1.60;;;;;;;10.78;100.00;101489.59;5028252;28;20033;-63
2022/09/18 03:50:54;;;;;;;4.22;1.23;;;;;;;10.76;100.00;101487.75;5027698;28;20147;-63
2022/09/18 03:53:19;;;;;;;4.82;1.40;;;;;;;10.76;100.00;101499.00;5027118;28;20343;-64
2022/09/18 03:55:47;;;;;;;4.82;1.15;;;;;;;10.77;100.00;101486.94;5027753;28;20510;-62
2022/09/18 03:58:12;;;;;;;7.05;1.88;;;;;;;10.75;100.00;101492.06;5027655;28;20025;-63
2022/09/18 04:00:37;;;;;;;6.43;1.02;;;;;;;10.75;100.00;101481.69;5027452;28;20181;-63
2022/09/18 04:03:03;;;;;;;5.65;1.52;;;;;;;10.76;100.00;101482.56;5028064;28;20044;-63
2022/09/18 04:05:28;;;;;;;3.72;0.90;;;;;;;10.75;100.00;101473.91;5027284;28;20033;-63
2022/09/18 04:07:54;;;;;;;7.78;1.30;;;;;;;10.75;100.00;101481.69;5027188;28;20128;-64
2022/09/18 04:10:19;;;;;;;4.20;1.45;;;;;;;10.76;100.00;101483.44;5027626;28;20296;-63
2022/09/18 04:12:46;;;;;;;6.57;1.42;;;;;;;10.76;100.00;101488.63;5027773;28;20389;-63
2022/09/18 04:15:13;;;;;;;3.80;1.10;;;;;;;10.74;100.00;101479.91;5027355;28;20040;-64
2022/09/18 04:17:38;;;;;;;5.43;1.02;;;;;;;10.70;100.00;101483.22;5026959;28;20132;-64
2022/09/18 04:20:04;;;;;;;5.50;1.17;;;;;;;10.67;100.00;101483.06;5027626;28;20100;-64
2022/09/18 04:22:30;;;;;;;4.00;1.20;;;;;;;10.66;100.00;101486.47;5027108;28;20460;-64
2022/09/18 04:24:55;;;;;;;4.57;0.95;;;;;;;10.61;100.00;101475.94;5027147;28;20036;-64
2022/09/18 04:27:20;;;;;;;5.75;1.27;;;;;;;10.61;100.00;101482.81;5026559;28;20029;-64
2022/09/18 04:29:46;;;;;;;6.00;1.00;;;;;;;10.60;100.00;101481.03;5026888;28;20396;-64
2022/09/18 04:32:12;;;;;;;4.95;1.00;;;;;;;10.60;100.00;101486.22;5027108;28;20041;-64
2022/09/18 04:34:37;;;;;;;4.18;0.80;;;;;;;10.59;100.00;101481.84;5026699;28;20025;-64
2022/09/18 04:37:02;;;;;;;2.08;0.80;;;;;;;10.55;100.00;101492.09;5026664;28;20030;-64
2022/09/18 04:39:27;;;;;;;2.97;0.77;;;;;;;10.53;100.00;101485.97;5027109;28;20072;-63
2022/09/18 04:41:53;;;;;;;4.18;0.75;;;;;;;10.52;100.00;101494.53;5026392;28;20053;-63
2022/09/18 04:44:18;;;;;;;5.35;0.70;;;;;;;10.51;100.00;101492.78;5026659;28;20033;-63
2022/09/18 04:46:43;;;;;;;2.55;0.80;;;;;;;10.51;100.00;101492.78;5026851;28;20034;-63
2022/09/18 04:49:09;;;;;;;4.03;0.95;;;;;;;10.48;100.00;101487.47;5027071;28;20327;-63
2022/09/18 04:51:34;;;;;;;7.60;1.85;;;;;;;10.49;100.00;101488.38;5026487;28;20047;-64
2022/09/18 04:53:59;;;;;;;4.60;1.63;;;;;;;10.44;100.00;101490.72;5026627;28;20033;-63
2022/09/18 04:56:25;;;;;;;9.20;1.48;;;;;;;10.44;100.00;101486.44;5027111;28;20025;-63
2022/09/18 04:58:50;;;;;;;5.95;0.90;;;;;;;10.42;100.00;101481.97;5026857;28;20061;-63
2022/09/18 05:01:16;;;;;;;3.33;0.75;;;;;;;10.42;100.00;101479.41;5026799;28;20041;-63
2022/09/18 05:03:41;;;;;;;4.03;0.88;;;;;;;10.42;100.00;101484.56;5032388;28;20029;-63
2022/09/18 05:06:07;;;;;;;5.53;1.17;;;;;;;10.40;100.00;101479.34;5031298;28;20112;-63
2022/09/18 05:08:33;;;;;;;2.72;0.82;;;;;;;10.39;100.00;101474.97;5026031;28;20104;-63
2022/09/18 05:10:59;;;;;;;4.10;0.95;;;;;;;10.42;100.00;101477.69;5025443;28;20116;-63
2022/09/18 05:13:25;;;;;;;1.67;0.80;;;;;;;10.41;100.00;101473.34;5031874;28;20842;-63
2022/09/18 05:15:54;;;;;;;5.25;1.15;;;;;;;10.42;100.00;101477.69;5023716;28;20466;-63
2022/09/18 05:18:20;;;;;;;5.30;0.90;;;;;;;10.44;100.00;101480.34;5023246;28;20045;-63
2022/09/18 05:20:45;;;;;;;2.63;0.90;;;;;;;10.47;100.00;101482.19;5024740;28;20512;-63
2022/09/18 05:23:10;;;;;;;6.47;0.98;;;;;;;10.47;100.00;101485.66;5022919;28;20041;-63
2022/09/18 05:25:36;;;;;;;3.40;0.98;;;;;;;10.50;100.00;101484.94;5024374;28;20096;-63
2022/09/18 05:28:02;;;;;;;5.65;0.88;;;;;;;10.52;100.00;101489.34;5024249;28;20360;-64
2022/09/18 05:30:29;;;;;;;7.10;1.17;;;;;;;10.53;100.00;101492.84;5026815;28;20033;-63
2022/09/18 05:33:00;;;;;;;5.03;0.90;;;;;;;10.51;100.00;101495.38;5027279;28;20807;-63
2022/09/18 05:35:27;;;;;;;7.18;1.55;;;;;;;10.52;100.00;101489.34;5028699;28;20025;-63
2022/09/18 05:37:53;;;;;;;3.88;0.80;;;;;;;10.54;100.00;101492.91;5029888;28;20028;-63
2022/09/18 05:40:22;;;;;;;4.88;0.90;;;;;;;10.54;100.00;101495.50;5029677;28;20046;-63
2022/09/18 05:42:48;;;;;;;2.08;0.88;;;;;;;10.55;100.00;101505.06;5029878;28;20386;-63
2022/09/18 05:45:14;;;;;;;2.78;1.00;;;;;;;10.55;100.00;101499.00;5030154;28;20484;-63
2022/09/18 05:47:41;;;;;;;4.43;1.00;;;;;;;10.54;100.00;101497.22;5029982;28;20136;-63
2022/09/18 05:50:08;;;;;;;5.68;0.95;;;;;;;10.54;100.00;101487.72;5029857;28;20034;-63
2022/09/18 05:52:34;;;;;;;6.28;1.10;;;;;;;10.52;100.00;101484.19;5029312;28;20095;-63
2022/09/18 05:55:00;;;;;;;5.60;0.90;;;;;;;10.53;100.00;101485.97;5011818;28;20128;-64
2022/09/18 05:57:26;;;;;;;4.88;1.10;;;;;;;10.55;100.00;101481.75;5029713;28;20579;-63
2022/09/18 05:59:51;;;;;;;4.65;0.80;;;;;;;10.55;100.00;101484.34;5029768;28;20046;-63
2022/09/18 06:02:16;;;;;;;7.05;1.42;;;;;;;10.59;100.00;101481.84;5029120;28;20017;-63
2022/09/18 06:04:42;;;;;;;4.28;0.80;;;;;;;10.61;100.00;101488.91;5029706;28;20029;-64
2022/09/18 06:07:07;;;;;;;2.38;0.88;;;;;;;10.65;100.00;101489.91;5029574;28;20116;-63
2022/09/18 06:09:33;;;;;;;4.38;0.77;;;;;;;10.68;100.00;101490.03;5029350;28;20028;-63
2022/09/18 06:11:58;;;;;;;4.07;1.30;;;;;;;10.72;100.00;101497.09;5029775;28;20075;-63
2022/09/18 06:14:23;;;;;;;2.72;0.82;;;;;;;10.75;100.00;101485.97;5029417;28;20035;-63
2022/09/18 06:16:49;;;;;;;2.38;0.85;;;;;;;10.77;100.00;101480.06;5029112;28;20033;-63
2022/09/18 06:19:15;;;;;;;3.92;0.80;;;;;;;10.80;100.00;101485.34;5011352;28;20029;-63
2022/09/18 06:21:40;;;;;;;3.67;1.13;;;;;;;10.84;100.00;101496.75;5029514;28;20055;-63
2022/09/18 06:24:06;;;;;;;5.47;1.00;;;;;;;10.87;100.00;101490.78;5029186;28;20029;-63
2022/09/18 06:26:31;;;;;;;5.57;1.15;;;;;;;10.86;100.00;101483.84;5029277;28;20212;-63
2022/09/18 06:28:57;;;;;;;5.10;1.35;;;;;;;10.86;100.00;101478.66;5029932;28;20111;-63
2022/09/18 06:31:23;;;;;;;4.20;1.23;;;;;;;10.91;100.00;101488.41;5029269;28;20072;-63
2022/09/18 06:33:48;;;;;;;5.82;1.50;;;;;;;10.95;100.00;101486.81;5029352;28;20083;-63
2022/09/18 06:36:15;;;;;;;5.10;1.05;;;;;;;10.97;100.00;101486.88;5029213;28;20025;-63
2022/09/18 06:38:41;;;;;;;4.88;1.00;;;;;;;11.01;100.00;101486.19;5028959;28;20037;-63
2022/09/18 06:41:06;;;;;;;3.95;1.00;;;;;;;11.05;100.00;101478.56;5027265;28;20027;-63
2022/09/18 06:43:31;;;;;;;7.35;1.23;;;;;;;11.08;100.00;101472.59;5028957;28;20038;-63
2022/09/18 06:45:57;;;;;;;6.07;1.27;;;;;;;11.09;100.00;101470.91;5028380;28;20049;-63
2022/09/18 06:48:23;;;;;;;3.38;0.95;;;;;;;11.10;100.00;101475.28;5028435;28;20025;-63
2022/09/18 06:50:53;;;;;;;6.32;1.52;;;;;;;11.11;100.00;101484.84;5028237;28;20029;-63
2022/09/18 06:53:19;;;;;;;8.85;1.45;;;;;;;11.14;100.00;101479.75;5028040;28;20569;-63
2022/09/18 06:55:44;;;;;;;5.10;1.65;;;;;;;11.14;100.00;101475.47;5028144;28;20481;-64
2022/09/18 06:58:10;;;;;;;5.10;1.80;;;;;;;11.16;100.00;101480.72;5028610;28;20192;-63
2022/09/18 07:00:35;;;;;;;4.50;1.30;;;;;;;11.18;100.00;101476.47;5028244;28;20083;-63
2022/09/18 07:03:01;;;;;;;3.28;1.05;;;;;;;11.20;100.00;101474.81;5028025;28;20021;-63
2022/09/18 07:05:31;;;;;;;5.80;1.38;;;;;;;11.21;100.00;101479.19;5027928;28;20110;-64
2022/09/18 07:07:57;;;;;;;5.85;1.52;;;;;;;11.24;100.00;101484.47;5027761;28;20413;-63
2022/09/18 07:10:24;;;;;;;4.93;1.85;;;;;;;11.27;100.00;101487.22;5028803;28;20025;-63
2022/09/18 07:12:58;;;;;;;4.38;2.03;;;;;;;11.29;100.00;101488.16;5028651;28;20033;-63
2022/09/18 07:15:25;;;;;;;7.65;2.03;;;;;;;11.33;100.00;101477.91;5027601;28;20389;-63
2022/09/18 07:17:51;;;;;;;5.55;1.92;;;;;;;11.35;100.00;101484.03;5027748;28;20381;-63
2022/09/18 07:20:17;;;;;;;7.13;1.67;;;;;;;11.39;100.00;101480.72;5027690;28;20359;-63
2022/09/18 07:22:42;;;;;;;4.45;1.85;;;;;;;11.43;100.00;101481.72;5027610;28;20385;-63
2022/09/18 07:25:09;;;;;;;4.55;1.40;;;;;;;11.45;100.00;101469.69;5027043;28;20029;-63
2022/09/18 07:27:35;;;;;;;8.35;1.90;;;;;;;11.41;100.00;101461.81;5027904;28;20022;-63
2022/09/18 07:30:00;;;;;;;5.65;1.40;;;;;;;11.44;100.00;101471.41;5028066;28;20025;-63
2022/09/18 07:32:26;;;;;;;7.85;2.45;;;;;;;11.46;100.00;101487.91;5027373;28;20040;-63
2022/09/18 07:34:51;;;;;;;6.25;1.85;;;;;;;11.47;100.00;101466.34;5027720;28;20029;-64
2022/09/18 07:37:17;;;;;;;3.72;1.30;;;;;;;11.44;100.00;101474.00;5027795;28;20021;-63
2022/09/18 07:39:43;;;;;;;4.18;2.28;;;;;;;11.46;100.00;101469.75;5026485;28;20219;-64
2022/09/18 07:42:09;;;;;;;9.38;1.42;;;;;;;11.43;100.00;101467.06;5027638;28;20041;-64
2022/09/18 07:44:35;;;;;;;7.45;1.92;;;;;;;11.41;100.00;101466.09;5033142;28;20477;-63
2022/09/18 07:47:00;;;;;;;4.15;1.63;;;;;;;11.43;100.00;101461.84;5014641;28;20030;-63
2022/09/18 07:49:25;;;;;;;4.88;1.55;;;;;;;11.50;100.00;101469.06;5025873;28;20104;-64
2022/09/18 07:51:51;;;;;;;3.72;1.65;;;;;;;11.60;100.00;101461.63;5025762;28;20022;-63
2022/09/18 07:54:16;;;;;;;2.95;1.13;;;;;;;11.66;100.00;101456.66;5025247;28;20041;-63
2022/09/18 07:56:42;;;;;;;5.00;1.52;;;;;;;11.74;100.00;101457.84;5025987;28;20076;-63
2022/09/18 07:59:08;;;;;;;7.43;2.20;;;;;;;11.92;100.00;101456.75;5026007;28;20108;-63
2022/09/18 08:01:33;;;;;;;5.55;1.27;;;;;;;12.19;100.00;101460.31;5025987;28;20394;-63
2022/09/18 08:04:00;;;;;;;5.28;1.60;;;;;;;12.34;100.00;101452.16;5025742;28;20216;-63
2022/09/18 08:06:25;;;;;;;7.40;1.75;;;;;;;12.65;100.00;101452.28;5025341;28;20512;-64
2022/09/18 08:08:50;;;;;;;5.72;1.38;;;;;;;12.87;100.00;101440.88;5026241;28;20100;-64
2022/09/18 08:11:16;;;;;;;3.17;1.30;;;;;;;12.97;100.00;101440.34;5026759;28;20032;-64
2022/09/18 08:13:41;;;;;;;5.22;1.50;;;;;;;13.04;100.00;101435.34;5027397;28;20029;-64
2022/09/18 08:16:06;;;;;;;6.07;1.42;;;;;;;13.11;100.00;101442.50;5027255;28;20098;-64
2022/09/18 08:18:31;;;;;;;4.28;0.90;;;;;;;13.18;100.00;101434.06;5026892;28;20079;-64
2022/09/18 08:20:57;;;;;;;5.22;1.73;;;;;;;13.15;100.00;101446.97;5027410;28;20079;-64
2022/09/18 08:23:22;;;;;;;3.58;1.13;;;;;;;13.12;100.00;101457.28;5027582;28;20045;-63
2022/09/18 08:25:47;;;;;;;4.72;1.45;;;;;;;13.03;100.00;101456.97;5027377;28;20479;-63
2022/09/18 08:28:13;;;;;;;8.05;1.75;;;;;;;12.96;100.00;101446.41;5026737;28;20029;-64
2022/09/18 08:30:38;;;;;;;4.72;1.25;;;;;;;12.89;100.00;101457.44;5027228;28;20091;-63
2022/09/18 08:33:07;;;;;;;4.85;1.23;;;;;;;12.88;100.00;101460.00;5026776;28;20040;-64
2022/09/18 08:35:32;;;;;;;4.68;0.82;;;;;;;12.85;100.00;101458.16;5036397;28;20026;-64
2022/09/18 08:37:58;;;;;;;3.67;1.25;;;;;;;12.83;100.00;101459.81;5026770;28;20279;-64
2022/09/18 08:41:02;;;;;;;5.72;1.10;;;;;;;12.81;100.00;101464.09;5026830;28;20052;-64
2022/09/18 08:43:51;;;;;;;5.45;1.23;;;;;;;12.81;100.00;101466.69;5026165;28;20058;-63
2022/09/18 08:46:24;;;;;;;5.25;1.27;;;;;;;12.77;100.00;101470.03;5027403;28;20036;-63
2022/09/18 08:49:08;;;;;;;6.20;1.00;;;;;;;12.78;100.00;101464.88;5027311;28;20048;-63
2022/09/18 08:51:44;;;;;;;5.18;1.13;;;;;;;12.78;100.00;101467.47;5026787;28;20025;-64
2022/09/18 08:54:46;;;;;;;2.95;1.30;;;;;;;12.80;100.00;101457.13;5026824;28;20544;-64
2022/09/18 08:57:27;;;;;;;3.28;0.90;;;;;;;12.82;100.00;101452.88;5026633;28;20025;-63
2022/09/18 08:59:57;;;;;;;3.43;0.87;;;;;;;12.85;100.00;101463.34;5027078;28;20044;-63
2022/09/18 09:02:38;;;;;;;5.10;0.95;;;;;;;12.85;100.00;101461.66;5026337;28;20625;-64
2022/09/18 09:05:13;;;;;;;4.93;1.03;;;;;;;12.81;100.00;101456.28;5028995;28;20087;-64
2022/09/18 09:07:57;;;;;;;6.80;1.40;;;;;;;12.76;100.00;101463.06;5030910;28;20283;-64
2022/09/18 09:10:40;;;;;;;5.55;1.20;;;;;;;12.78;100.00;101461.41;5030778;28;20037;-64
2022/09/18 09:13:26;;;;;;;4.65;1.20;;;;;;;12.81;100.00;101457.19;5029818;28;20036;-63
2022/09/18 09:16:07;;;;;;;4.07;1.10;;;;;;;12.85;100.00;101460.75;5030388;28;20084;-64
2022/09/18 09:18:51;;;;;;;6.35;1.23;;;;;;;12.86;100.00;101465.16;5030268;28;20663;-64
2022/09/18 09:21:21;;;;;;;4.65;1.30;;;;;;;12.88;100.00;101463.44;5030595;28;20033;-64
2022/09/18 09:23:55;;;;;;;6.07;0.97;;;;;;;12.88;100.00;101458.25;5030515;28;20107;-64
2022/09/18 09:26:22;;;;;;;2.85;0.90;;;;;;;12.91;100.00;101468.78;5030786;28;20805;-64
2022/09/18 09:29:05;;;;;;;2.53;1.02;;;;;;;12.93;100.00;101467.09;5030583;28;20579;-63
2022/09/18 09:31:45;;;;;;;3.97;1.10;;;;;;;12.96;100.00;101467.22;5030386;28;20027;-64
2022/09/18 09:34:41;;;;;;;1.38;1.02;;;;;;;12.96;100.00;101469.81;5030421;28;20477;-63
2022/09/18 09:37:13;;;;;;;2.03;1.23;;;;;;;12.99;100.00;101465.53;5029892;28;20029;-64
2022/09/18 09:39:49;;;;;;;3.95;1.17;;;;;;;12.98;100.00;101477.66;5030586;28;20032;-64
2022/09/18 09:42:26;;;;;;;7.32;1.30;;;;;;;12.92;100.00;101465.31;5029558;28;20053;-64
2022/09/18 09:44:59;;;;;;;5.07;1.60;;;;;;;12.95;100.00;101469.75;5030105;28;20035;-64
2022/09/18 09:48:11;;;;;;;3.13;1.05;;;;;;;13.02;100.00;101463.03;5029809;28;20021;-64
2022/09/18 09:50:41;;;;;;;3.00;1.35;;;;;;;13.09;100.00;101457.19;4968110;28;20058;-64
2022/09/18 09:53:11;;;;;;;5.40;1.00;;;;;;;13.14;100.00;101454.72;4968550;28;20046;-64
2022/09/18 09:55:59;;;;;;;2.83;1.20;;;;;;;13.17;100.00;101447.00;5003213;28;20116;-64
2022/09/18 09:58:47;;;;;;;4.22;0.73;;;;;;;13.21;100.00;101441.97;5029578;28;20029;-64
2022/09/18 10:01:23;;;;;;;4.55;1.00;;;;;;;13.23;100.00;101439.41;5029804;28;20049;-64
2022/09/18 10:04:00;;;;;;;2.80;0.80;;;;;;;13.27;100.00;101423.06;5029668;28;20072;-64
2022/09/18 10:06:54;;;;;;;2.25;0.57;;;;;;;13.31;100.00;101418.81;5029807;28;20021;-64
2022/09/18 10:09:52;;;;;;;1.92;0.60;;;;;;;13.33;100.00;101422.31;5029831;28;20484;-64
2022/09/18 10:12:29;;;;;;;1.70;0.52;;;;;;;13.39;100.00;101429.44;5029508;28;20029;-64
2022/09/18 10:15:05;;;;;;;5.32;1.00;;;;;;;13.40;100.00;101429.47;5029319;28;20014;-64
2022/09/18 10:17:36;;;;;;;4.63;0.70;;;;;;;13.41;100.00;101423.47;5029241;28;20028;-64
2022/09/18 10:20:03;;;;;;;3.20;0.93;;;;;;;13.45;100.00;101432.25;5029640;28;20376;-64
2022/09/18 10:22:29;;;;;;;3.90;0.93;;;;;;;13.48;100.00;101423.63;5029335;28;20048;-64
2022/09/18 10:25:14;;;;;;;2.40;1.00;;;;;;;13.56;100.00;101427.38;5029075;28;20017;-64
2022/09/18 10:27:40;;;;;;;1.95;0.95;;;;;;;13.61;100.00;101425.78;5028749;28;20060;-64
2022/09/18 10:30:12;;;;;;;4.75;1.45;;;;;;;13.71;100.00;101428.66;5029545;28;20048;-64
2022/09/18 10:32:42;;;;;;;2.75;1.00;;;;;;;13.77;100.00;101432.31;5029361;28;20022;-64
2022/09/18 10:35:29;;;;;;;3.63;1.27;;;;;;;13.85;100.00;101429.91;5029665;28;20036;-64
2022/09/18 10:37:55;;;;;;;3.65;1.10;;;;;;;13.89;100.00;101436.97;5028788;28;20048;-64
2022/09/18 10:40:38;;;;;;;4.80;1.30;;;;;;;13.90;100.00;101425.75;5028949;28;20349;-64
2022/09/18 10:43:05;;;;;;;2.65;0.98;;;;;;;13.93;100.00;101423.22;5028827;28;20053;-64
2022/09/18 10:45:40;;;;;;;2.58;1.00;;;;;;;13.97;100.00;101428.50;5029134;28;20124;-64
2022/09/18 10:48:25;;;;;;;4.03;0.85;;;;;;;13.98;100.00;101412.91;5028952;28;20018;-64
2022/09/18 10:50:55;;;;;;;3.50;1.10;;;;;;;13.92;100.00;101415.34;5027978;28;20022;-64
2022/09/18 10:53:32;;;;;;;2.33;1.15;;;;;;;13.93;100.00;101423.22;5028606;28;20028;-64
2022/09/18 10:56:15;;;;;;;3.63;0.90;;;;;;;13.91;100.00;101413.56;5028522;28;20053;-64
2022/09/18 10:58:41;;;;;;;5.43;0.60;;;;;;;13.86;100.00;101405.63;5028489;28;20115;-64
2022/09/18 11:01:09;;;;;;;2.60;0.60;;;;;;;13.81;100.00;101402.03;5028213;28;20076;-64
2022/09/18 11:03:58;;;;;;;3.70;0.85;;;;;;;13.71;100.00;101415.66;5028712;28;20022;-64
2022/09/18 11:06:26;;;;;;;2.42;0.73;;;;;;;13.64;100.00;101464.03;5028410;28;20021;-64
2022/09/18 11:08:55;;;;;;;8.50;2.22;;;;;;;13.55;100.00;101457.72;5028154;28;20485;-64
2022/09/18 11:11:30;;;;;;;6.72;1.58;;;;;;;13.30;100.00;101441.34;5027675;28;20496;-64
2022/09/18 11:14:13;;;;;;;2.65;0.50;;;;;;;13.06;100.00;101439.75;5027988;28;20026;-64
2022/09/18 11:16:46;;;;;;;2.58;0.57;;;;;;;12.79;100.00;101429.38;5027743;28;20553;-64
2022/09/18 11:19:27;;;;;;;2.03;0.50;;;;;;;12.65;100.00;101434.09;5028146;28;20033;-64
2022/09/18 11:21:55;;;;;;;2.25;0.30;;;;;;;12.56;100.00;101445.06;5028206;28;20501;-64
2022/09/18 11:24:23;;;;;;;2.50;0.30;;;;;;;12.46;100.00;101444.78;5028095;28;20052;-64
2022/09/18 11:26:51;;;;;;;2.53;0.68;;;;;;;12.41;100.00;101446.31;5028100;28;20432;-64
2022/09/18 11:29:22;;;;;;;2.90;0.70;;;;;;;12.37;100.00;101454.88;5028316;28;20463;-64
2022/09/18 11:32:13;;;;;;;3.08;0.60;;;;;;;12.27;100.00;101452.78;5027968;28;20014;-64
2022/09/18 11:34:47;;;;;;;3.53;0.70;;;;;;;12.24;100.00;101456.16;5027501;28;20046;-64